Impacts METAR Board INFO
IDs:

KCVG - Cincinnati Intl, KY, US

Updated at: 0554 UTC 17 Dec 2017
Potential Impact None Slight Moderate High
Time16/17Z 16/18Z 16/19Z 16/20Z 16/21Z 16/22Z 16/23Z 17/00Z 17/01Z 17/02Z 17/03Z 17/04Z 17/05Z
VIS10 10 10 10 10 10 10 10 10 10 10 10 10
CIG-- -- -- -- -- -- -- -- -- -- -- -- --
CoverCLRCLRCLRCLRCLRFEWFEWFEWFEWFEWFEWFEWFEW
FltCatVFRVFRVFRVFRVFRVFRVFRVFRVFRVFRVFRVFRVFR
WX--------------------------
WDir210230220220220210200200200210220220210
WSpd16 17 12 13 10 10 9 10 9 8 11 8 6
WGst20 23 21 -- 19 -- -- -- -- -- -- -- --
Raw hourly METARs
KCVG 161652Z 21016G20KT 10SM CLR 07/M02 A3007 RMK AO2 PK WND 23026/1640 SLP188 T00671017
KCVG 161752Z 23017G23KT 10SM CLR 08/M02 A3006 RMK AO2 SLP182 T00831017 10083 21006 58007
KCVG 161852Z 22012G21KT 10SM CLR 09/M02 A3005 RMK AO2 SLP178 T00941017
KCVG 161952Z 22013KT 10SM CLR 09/M02 A3004 RMK AO2 SLP176 T00941022
KCVG 162052Z 22010G19KT 10SM CLR 10/M03 A3004 RMK AO2 SLP176 T01001028 55006
KCVG 162152Z 21010KT 10SM FEW250 09/M03 A3006 RMK AO2 SLP181 T00891028
KCVG 162252Z 20009KT 10SM FEW250 07/M02 A3008 RMK AO2 SLP187 T00721022
KCVG 162352Z 20010KT 10SM FEW250 07/M02 A3008 RMK AO2 SLP189 T00671017 10100 20061 51011
KCVG 170052Z 20009KT 10SM FEW250 06/M02 A3010 RMK AO2 SLP195 T00611017
KCVG 170204Z COR 21008KT 10SM FEW250 06/M01 A3011 RMK AO2 T00561011
KCVG 170252Z 22011KT 10SM FEW250 06/M01 A3013 RMK AO2 SLP204 T00611011 51016
KCVG 170352Z 22008KT 10SM FEW250 06/M01 A3015 RMK AO2 SLP214 T00561011
KCVG 170452Z 21006KT 10SM FEW250 04/M01 A3017 RMK AO2 SLP219 T00441011 401001011